weather.gov     
National Weather Service

Terminal Aerodrome Forecast
NWS Homepage
This page is being discontinued on March 12, 2014.
The same data is available at this site. Please update your bookmarks.
Thank you, and we apologize for the inconvenience.
Please send an email to SR-SRH.Webmaster@noaa.gov with any concerns.


Current Version
Previous Version:    01  02  03  04  05  06  07  08  09  10  11  12  13  14  15  16  17  18  19  20  21  22  23  24  25  26  27  28  29  30  
   31  32  33  
[Printable]
165
FTUS42 TJSJ 161900 AAA
TAFJPS
TAF AMD
TJPS 161922Z 1619/1718 14011KT P6SM VCTS SCT020CB BKN040
      TEMPO 1619/1622 3SM SHRA SCT015 BKN030
     FM162300 09005KT P6SM FEW030 SCT080
     FM170300 05003KT P6SM FEW030
      AMD NOT SKED TIL 170300=


U.S. Dept. of Commerce
NOAA National Weather Service
1325 East West Highway
Silver Spring, MD 20910
E-mail: w-nws.webmaster@noaa.gov
Page last modified: May 16, 2007
NATIONAL WEATHER SERVICE: for Safety, for Work, for Fun - FOR LIFE